RYR613K LEPA-LIMC
Flight info
| Callsign | RYR613K |
|---|---|
| Flight time | 1h 19m |
| Altitude | 34000 |
| Route | ISTER DCT LUNOR DCT NESUL DCT NEGAT DCT OMEDA DCT RAPUR DCT TORTU DCT ANAKI P860 DEVOX |
| Aircraft | A320/M-SDE3FGHIRWY/LB1 |
Departure
| Time | 2026-05-08 04:30 |
|---|---|
| Airport | Palma de Mallorca Airport (LEPA) |
Arrival
| Time | 2026-05-08 05:49 |
|---|---|
| Airport | Milan Malpensa International Airport (LIMC) |
| Time | Latitude | Longitude | Altitude | Speed | Heading |
|---|---|---|---|---|---|
| 2026-05-08 04:06 | 39.54718 | 2.73675 | 32 ft | 0 kts | 58° |
| 2026-05-08 04:24 | 39.54713 | 2.73665 | 32 ft | 2 kts | 58° |
| 2026-05-08 04:24 | 39.54705 | 2.73648 | 32 ft | 2 kts | 58° |
| 2026-05-08 04:24 | 39.54697 | 2.73631 | 32 ft | 2 kts | 59° |
| 2026-05-08 04:25 | 39.54693 | 2.73613 | 32 ft | 2 kts | 92° |
| 2026-05-08 04:25 | 39.54697 | 2.73594 | 32 ft | 2 kts | 118° |
| 2026-05-08 04:25 | 39.54706 | 2.73579 | 32 ft | 1 kts | 144° |
| 2026-05-08 04:25 | 39.54711 | 2.73575 | 32 ft | 1 kts | 151° |
| 2026-05-08 04:26 | 39.54713 | 2.73573 | 31 ft | 0 kts | 149° |
| 2026-05-08 04:27 | 39.54698 | 2.73586 | 32 ft | 5 kts | 149° |
| 2026-05-08 04:28 | 39.54647 | 2.73617 | 32 ft | 10 kts | 170° |
| 2026-05-08 04:28 | 39.54573 | 2.73657 | 32 ft | 12 kts | 147° |
| 2026-05-08 04:28 | 39.54489 | 2.73723 | 32 ft | 15 kts | 149° |
| 2026-05-08 04:28 | 39.54425 | 2.73795 | 31 ft | 9 kts | 89° |
| 2026-05-08 04:29 | 39.54462 | 2.73884 | 31 ft | 21 kts | 59° |
| 2026-05-08 04:29 | 39.54676 | 2.74337 | 26 ft | 94 kts | 58° |
| 2026-05-08 04:29 | 39.55136 | 2.75309 | 12 ft | 153 kts | 58° |
| 2026-05-08 04:29 | 39.55712 | 2.76536 | 467 ft | 163 kts | 59° |
| 2026-05-08 04:30 | 39.56285 | 2.77773 | 1213 ft | 160 kts | 59° |
| 2026-05-08 04:30 | 39.56871 | 2.78969 | 1915 ft | 161 kts | 59° |
| 2026-05-08 04:30 | 39.57497 | 2.80216 | 2392 ft | 176 kts | 59° |
| 2026-05-08 04:30 | 39.58200 | 2.81614 | 2868 ft | 192 kts | 59° |
| 2026-05-08 04:31 | 39.58961 | 2.83144 | 3273 ft | 214 kts | 59° |
| 2026-05-08 04:31 | 39.59766 | 2.84774 | 4093 ft | 217 kts | 59° |
| 2026-05-08 04:31 | 39.60570 | 2.86408 | 4953 ft | 218 kts | 59° |
| 2026-05-08 04:31 | 39.61371 | 2.88046 | 5741 ft | 221 kts | 59° |
| 2026-05-08 04:32 | 39.62190 | 2.89732 | 6520 ft | 225 kts | 59° |
| 2026-05-08 04:32 | 39.63163 | 2.91350 | 7206 ft | 235 kts | 41° |
| 2026-05-08 04:32 | 39.64617 | 2.92469 | 7695 ft | 253 kts | 30° |
| 2026-05-08 04:32 | 39.66045 | 2.93850 | 8124 ft | 267 kts | 53° |
| 2026-05-08 04:33 | 39.66870 | 2.96009 | 8748 ft | 275 kts | 75° |
| 2026-05-08 04:33 | 39.67382 | 2.98416 | 9550 ft | 278 kts | 73° |
| 2026-05-08 04:33 | 39.67982 | 3.00784 | 10301 ft | 282 kts | 70° |
| 2026-05-08 04:33 | 39.68721 | 3.03204 | 10762 ft | 297 kts | 67° |
| 2026-05-08 04:34 | 39.69587 | 3.05712 | 11141 ft | 314 kts | 65° |
| 2026-05-08 04:34 | 39.70544 | 3.08296 | 11696 ft | 323 kts | 64° |
| 2026-05-08 04:34 | 39.71556 | 3.10944 | 12334 ft | 330 kts | 63° |
| 2026-05-08 04:34 | 39.72592 | 3.13612 | 12936 ft | 336 kts | 63° |
| 2026-05-08 04:35 | 39.73649 | 3.16318 | 13543 ft | 342 kts | 62° |
| 2026-05-08 04:35 | 39.74732 | 3.19088 | 14133 ft | 347 kts | 62° |
| 2026-05-08 04:35 | 39.75830 | 3.21896 | 14700 ft | 353 kts | 62° |
| 2026-05-08 04:35 | 39.76883 | 3.24820 | 15271 ft | 359 kts | 68° |
| 2026-05-08 04:36 | 39.77621 | 3.27916 | 15852 ft | 364 kts | 77° |
| 2026-05-08 04:36 | 39.78044 | 3.31176 | 16441 ft | 368 kts | 82° |
| 2026-05-08 04:36 | 39.78361 | 3.34487 | 16974 ft | 373 kts | 83° |
| 2026-05-08 04:36 | 39.78664 | 3.37850 | 17479 ft | 378 kts | 83° |
| 2026-05-08 04:37 | 39.78974 | 3.41249 | 18001 ft | 382 kts | 83° |
| 2026-05-08 04:37 | 39.79287 | 3.44641 | 18518 ft | 386 kts | 83° |
| 2026-05-08 04:37 | 39.79614 | 3.48163 | 18996 ft | 391 kts | 82° |
| 2026-05-08 04:37 | 39.79942 | 3.51658 | 19468 ft | 396 kts | 82° |
| 2026-05-08 04:38 | 39.80278 | 3.55229 | 19963 ft | 400 kts | 82° |
| 2026-05-08 04:38 | 39.80618 | 3.58832 | 20438 ft | 404 kts | 82° |
| 2026-05-08 04:38 | 39.80957 | 3.62451 | 20891 ft | 408 kts | 82° |
| 2026-05-08 04:38 | 39.81301 | 3.66120 | 21344 ft | 412 kts | 82° |
| 2026-05-08 04:39 | 39.81647 | 3.69823 | 21765 ft | 416 kts | 82° |
| 2026-05-08 04:39 | 39.81996 | 3.73567 | 22197 ft | 420 kts | 82° |
| 2026-05-08 04:39 | 39.82344 | 3.77311 | 22617 ft | 423 kts | 82° |
| 2026-05-08 04:39 | 39.82698 | 3.81140 | 23050 ft | 427 kts | 82° |
| 2026-05-08 04:40 | 39.83049 | 3.84945 | 23458 ft | 430 kts | 82° |
| 2026-05-08 04:40 | 39.83404 | 3.88808 | 23855 ft | 434 kts | 82° |
| 2026-05-08 04:40 | 39.83765 | 3.92754 | 24262 ft | 438 kts | 82° |
| 2026-05-08 04:40 | 39.84122 | 3.96667 | 24658 ft | 441 kts | 82° |
| 2026-05-08 04:41 | 39.84481 | 4.00640 | 25087 ft | 443 kts | 82° |
| 2026-05-08 04:41 | 39.84840 | 4.04615 | 25478 ft | 447 kts | 82° |
| 2026-05-08 04:41 | 39.85199 | 4.08604 | 25815 ft | 451 kts | 81° |
| 2026-05-08 04:41 | 39.85563 | 4.12661 | 26167 ft | 454 kts | 81° |
| 2026-05-08 04:42 | 39.85932 | 4.16765 | 26508 ft | 458 kts | 80° |
| 2026-05-08 04:42 | 39.86571 | 4.20841 | 26832 ft | 459 kts | 70° |
| 2026-05-08 04:42 | 39.87690 | 4.24676 | 27181 ft | 457 kts | 59° |
| 2026-05-08 04:42 | 39.89207 | 4.28303 | 27548 ft | 456 kts | 54° |
| 2026-05-08 04:43 | 39.90834 | 4.31855 | 27893 ft | 458 kts | 54° |
| 2026-05-08 04:43 | 39.92465 | 4.35376 | 28206 ft | 461 kts | 54° |
| 2026-05-08 04:43 | 39.94101 | 4.38950 | 28525 ft | 464 kts | 54° |
| 2026-05-08 04:43 | 39.95756 | 4.42610 | 28857 ft | 466 kts | 54° |
| 2026-05-08 04:44 | 39.97378 | 4.46217 | 29151 ft | 469 kts | 54° |
| 2026-05-08 04:44 | 39.99032 | 4.49924 | 29435 ft | 472 kts | 54° |
| 2026-05-08 04:44 | 40.00675 | 4.53615 | 29729 ft | 474 kts | 54° |
| 2026-05-08 04:44 | 40.02331 | 4.57341 | 30008 ft | 477 kts | 54° |
| 2026-05-08 04:45 | 40.03993 | 4.61085 | 30316 ft | 478 kts | 54° |
| 2026-05-08 04:45 | 40.05654 | 4.64828 | 30585 ft | 481 kts | 54° |
| 2026-05-08 04:45 | 40.07338 | 4.68622 | 30826 ft | 483 kts | 54° |
| 2026-05-08 04:45 | 40.09019 | 4.72411 | 31031 ft | 486 kts | 54° |
| 2026-05-08 04:46 | 40.10713 | 4.76232 | 31261 ft | 488 kts | 54° |
| 2026-05-08 04:46 | 40.12417 | 4.80080 | 31507 ft | 490 kts | 54° |
| 2026-05-08 04:46 | 40.14116 | 4.83922 | 31716 ft | 493 kts | 54° |
| 2026-05-08 04:46 | 40.15824 | 4.87788 | 31921 ft | 495 kts | 54° |
| 2026-05-08 04:47 | 40.17545 | 4.91695 | 32203 ft | 496 kts | 54° |
| 2026-05-08 04:47 | 40.19257 | 4.95588 | 32486 ft | 496 kts | 54° |
| 2026-05-08 04:47 | 40.20963 | 4.99469 | 32712 ft | 498 kts | 54° |
| 2026-05-08 04:47 | 40.22699 | 5.03426 | 32909 ft | 499 kts | 54° |
| 2026-05-08 04:48 | 40.24413 | 5.07329 | 33118 ft | 501 kts | 54° |
| 2026-05-08 04:48 | 40.26156 | 5.11307 | 33299 ft | 503 kts | 54° |
| 2026-05-08 04:48 | 40.27879 | 5.15245 | 33513 ft | 504 kts | 54° |
| 2026-05-08 04:48 | 40.29623 | 5.19241 | 33718 ft | 505 kts | 54° |
| 2026-05-08 04:49 | 40.31348 | 5.23196 | 33907 ft | 506 kts | 54° |
| 2026-05-08 04:49 | 40.33093 | 5.27202 | 33950 ft | 507 kts | 54° |
| 2026-05-08 04:49 | 40.36583 | 5.35230 | 33958 ft | 508 kts | 54° |
| 2026-05-08 04:50 | 40.40051 | 5.43229 | 33964 ft | 507 kts | 54° |
| 2026-05-08 04:50 | 40.43506 | 5.51213 | 33969 ft | 506 kts | 54° |
| 2026-05-08 04:51 | 40.46967 | 5.59232 | 33972 ft | 506 kts | 54° |
| 2026-05-08 04:51 | 40.50413 | 5.67235 | 33969 ft | 505 kts | 55° |
| 2026-05-08 04:52 | 40.53857 | 5.75261 | 33977 ft | 505 kts | 55° |
| 2026-05-08 04:52 | 40.57297 | 5.83303 | 33972 ft | 504 kts | 55° |
| 2026-05-08 04:53 | 40.60723 | 5.91325 | 33973 ft | 505 kts | 55° |
| 2026-05-08 04:53 | 40.64128 | 5.99328 | 33978 ft | 503 kts | 55° |
| 2026-05-08 04:54 | 40.67532 | 6.07346 | 33979 ft | 504 kts | 54° |
| 2026-05-08 04:54 | 40.70948 | 6.15405 | 33979 ft | 504 kts | 55° |
| 2026-05-08 04:55 | 40.74339 | 6.23434 | 33981 ft | 502 kts | 55° |
| 2026-05-08 04:55 | 40.77723 | 6.31471 | 33981 ft | 502 kts | 55° |
| 2026-05-08 04:56 | 40.81102 | 6.39511 | 33981 ft | 502 kts | 55° |
| 2026-05-08 04:56 | 40.84448 | 6.47499 | 33982 ft | 501 kts | 56° |
| 2026-05-08 04:57 | 40.87808 | 6.55538 | 33984 ft | 501 kts | 56° |
| 2026-05-08 04:57 | 40.91166 | 6.63595 | 33981 ft | 501 kts | 56° |
| 2026-05-08 04:58 | 40.94503 | 6.71630 | 33980 ft | 502 kts | 56° |
| 2026-05-08 04:58 | 40.97842 | 6.79685 | 33981 ft | 501 kts | 56° |
| 2026-05-08 04:59 | 41.01195 | 6.87793 | 33984 ft | 501 kts | 56° |
| 2026-05-08 04:59 | 41.04505 | 6.95819 | 33985 ft | 501 kts | 57° |
| 2026-05-08 05:00 | 41.07849 | 7.03961 | 33989 ft | 501 kts | 57° |
| 2026-05-08 05:00 | 41.11156 | 7.12021 | 33993 ft | 500 kts | 57° |
| 2026-05-08 05:01 | 41.14457 | 7.20087 | 33990 ft | 499 kts | 58° |
| 2026-05-08 05:01 | 41.17746 | 7.28156 | 33987 ft | 497 kts | 58° |
| 2026-05-08 05:02 | 41.21027 | 7.36228 | 33983 ft | 496 kts | 58° |
| 2026-05-08 05:02 | 41.24262 | 7.44210 | 33978 ft | 495 kts | 58° |
| 2026-05-08 05:03 | 41.27514 | 7.52239 | 33981 ft | 494 kts | 59° |
| 2026-05-08 05:03 | 41.30749 | 7.60271 | 33966 ft | 494 kts | 59° |
| 2026-05-08 05:04 | 41.33992 | 7.68342 | 33965 ft | 494 kts | 59° |
| 2026-05-08 05:04 | 41.37246 | 7.76341 | 33949 ft | 491 kts | 56° |
| 2026-05-08 05:05 | 41.41379 | 7.83416 | 33988 ft | 483 kts | 41° |
| 2026-05-08 05:05 | 41.46627 | 7.88864 | 33983 ft | 476 kts | 27° |
| 2026-05-08 05:06 | 41.52537 | 7.92556 | 33973 ft | 472 kts | 18° |
| 2026-05-08 05:06 | 41.58655 | 7.95772 | 33953 ft | 472 kts | 17° |
| 2026-05-08 05:07 | 41.64751 | 7.99007 | 33956 ft | 473 kts | 18° |
| 2026-05-08 05:07 | 41.70821 | 8.02267 | 33987 ft | 473 kts | 18° |
| 2026-05-08 05:08 | 41.76942 | 8.05574 | 33968 ft | 473 kts | 19° |
| 2026-05-08 05:08 | 41.83035 | 8.08884 | 33976 ft | 474 kts | 19° |
| 2026-05-08 05:09 | 41.89139 | 8.12197 | 33992 ft | 476 kts | 19° |
| 2026-05-08 05:09 | 41.95246 | 8.15523 | 33967 ft | 476 kts | 19° |
| 2026-05-08 05:10 | 42.04462 | 8.20562 | 33980 ft | 477 kts | 20° |
| 2026-05-08 05:11 | 42.10587 | 8.23915 | 33978 ft | 478 kts | 20° |
| 2026-05-08 05:11 | 42.16775 | 8.27313 | 33974 ft | 478 kts | 20° |
| 2026-05-08 05:12 | 42.22913 | 8.30687 | 33982 ft | 478 kts | 20° |
| 2026-05-08 05:12 | 42.29039 | 8.34064 | 33969 ft | 479 kts | 20° |
| 2026-05-08 05:13 | 42.35210 | 8.37474 | 33987 ft | 479 kts | 20° |
| 2026-05-08 05:13 | 42.41372 | 8.40881 | 33973 ft | 481 kts | 20° |
| 2026-05-08 05:14 | 42.47584 | 8.44330 | 33976 ft | 481 kts | 20° |
| 2026-05-08 05:14 | 42.53769 | 8.47768 | 33979 ft | 481 kts | 20° |
| 2026-05-08 05:15 | 42.59933 | 8.51203 | 33970 ft | 482 kts | 20° |
| 2026-05-08 05:15 | 42.66124 | 8.54662 | 33974 ft | 482 kts | 20° |
| 2026-05-08 05:16 | 42.72328 | 8.58133 | 33962 ft | 483 kts | 20° |
| 2026-05-08 05:16 | 42.78481 | 8.61585 | 33975 ft | 482 kts | 21° |
| 2026-05-08 05:17 | 42.84687 | 8.65072 | 33975 ft | 483 kts | 21° |
| 2026-05-08 05:17 | 42.90922 | 8.68586 | 33965 ft | 483 kts | 21° |
| 2026-05-08 05:18 | 42.97092 | 8.72067 | 33967 ft | 483 kts | 21° |
| 2026-05-08 05:18 | 43.03317 | 8.75589 | 33971 ft | 484 kts | 21° |
| 2026-05-08 05:19 | 43.09530 | 8.79110 | 33968 ft | 483 kts | 21° |
| 2026-05-08 05:19 | 43.15726 | 8.82628 | 33968 ft | 484 kts | 21° |
| 2026-05-08 05:20 | 43.21962 | 8.86181 | 33968 ft | 485 kts | 21° |
| 2026-05-08 05:20 | 43.25059 | 8.87950 | 33836 ft | 480 kts | 21° |
| 2026-05-08 05:20 | 43.28096 | 8.89683 | 33270 ft | 477 kts | 21° |
| 2026-05-08 05:20 | 43.31147 | 8.91428 | 32587 ft | 475 kts | 21° |
| 2026-05-08 05:21 | 43.34256 | 8.92943 | 31954 ft | 471 kts | 14° |
| 2026-05-08 05:21 | 43.37408 | 8.93915 | 31319 ft | 466 kts | 7° |
| 2026-05-08 05:21 | 43.40571 | 8.94349 | 30837 ft | 457 kts | 0° |
| 2026-05-08 05:21 | 43.43750 | 8.94267 | 30326 ft | 449 kts | 353° |
| 2026-05-08 05:22 | 43.46790 | 8.93702 | 29787 ft | 443 kts | 347° |
| 2026-05-08 05:22 | 43.49771 | 8.92884 | 29214 ft | 438 kts | 345° |
| 2026-05-08 05:22 | 43.52760 | 8.92006 | 28657 ft | 434 kts | 345° |
| 2026-05-08 05:22 | 43.55688 | 8.91141 | 28090 ft | 429 kts | 345° |
| 2026-05-08 05:23 | 43.58584 | 8.90295 | 27532 ft | 425 kts | 346° |
| 2026-05-08 05:23 | 43.61452 | 8.89465 | 26991 ft | 421 kts | 346° |
| 2026-05-08 05:23 | 43.64302 | 8.88646 | 26423 ft | 417 kts | 346° |
| 2026-05-08 05:23 | 43.67130 | 8.87835 | 25883 ft | 413 kts | 346° |
| 2026-05-08 05:24 | 43.69923 | 8.87034 | 25335 ft | 409 kts | 346° |
| 2026-05-08 05:24 | 43.72691 | 8.86242 | 24794 ft | 405 kts | 346° |
| 2026-05-08 05:24 | 43.75407 | 8.85465 | 24260 ft | 402 kts | 346° |
| 2026-05-08 05:24 | 43.78139 | 8.84681 | 23730 ft | 398 kts | 346° |
| 2026-05-08 05:25 | 43.80840 | 8.83906 | 23223 ft | 394 kts | 346° |
| 2026-05-08 05:25 | 43.83520 | 8.83136 | 22730 ft | 390 kts | 346° |
| 2026-05-08 05:25 | 43.86134 | 8.82385 | 22248 ft | 387 kts | 346° |
| 2026-05-08 05:25 | 43.88766 | 8.81628 | 21749 ft | 383 kts | 346° |
| 2026-05-08 05:26 | 43.91337 | 8.80889 | 21257 ft | 380 kts | 347° |
| 2026-05-08 05:26 | 43.93923 | 8.80143 | 20770 ft | 377 kts | 347° |
| 2026-05-08 05:26 | 43.96465 | 8.79411 | 20299 ft | 373 kts | 347° |
| 2026-05-08 05:26 | 43.99014 | 8.78676 | 19815 ft | 370 kts | 347° |
| 2026-05-08 05:27 | 44.01503 | 8.77957 | 19341 ft | 368 kts | 347° |
| 2026-05-08 05:27 | 44.04000 | 8.77236 | 18866 ft | 365 kts | 347° |
| 2026-05-08 05:27 | 44.06457 | 8.76524 | 18404 ft | 362 kts | 347° |
| 2026-05-08 05:27 | 44.08924 | 8.75809 | 17949 ft | 359 kts | 347° |
| 2026-05-08 05:28 | 44.11348 | 8.75107 | 17485 ft | 356 kts | 347° |
| 2026-05-08 05:28 | 44.13737 | 8.74414 | 17030 ft | 354 kts | 347° |
| 2026-05-08 05:28 | 44.16134 | 8.73719 | 16574 ft | 352 kts | 347° |
| 2026-05-08 05:28 | 44.18525 | 8.73081 | 16116 ft | 349 kts | 351° |
| 2026-05-08 05:29 | 44.20928 | 8.72726 | 15669 ft | 347 kts | 356° |
| 2026-05-08 05:29 | 44.23337 | 8.72678 | 15216 ft | 345 kts | 1° |
| 2026-05-08 05:29 | 44.25734 | 8.72767 | 14795 ft | 343 kts | 1° |
| 2026-05-08 05:29 | 44.28102 | 8.72877 | 14361 ft | 340 kts | 2° |
| 2026-05-08 05:30 | 44.30447 | 8.72988 | 13917 ft | 338 kts | 2° |
| 2026-05-08 05:30 | 44.32785 | 8.73095 | 13472 ft | 336 kts | 2° |
| 2026-05-08 05:30 | 44.35110 | 8.73198 | 13037 ft | 333 kts | 2° |
| 2026-05-08 05:30 | 44.37416 | 8.73299 | 12594 ft | 330 kts | 2° |
| 2026-05-08 05:31 | 44.39713 | 8.73400 | 12161 ft | 328 kts | 2° |
| 2026-05-08 05:31 | 44.41967 | 8.73498 | 11729 ft | 325 kts | 2° |
| 2026-05-08 05:31 | 44.44207 | 8.73595 | 11289 ft | 322 kts | 2° |
| 2026-05-08 05:31 | 44.46435 | 8.73692 | 10842 ft | 320 kts | 2° |
| 2026-05-08 05:32 | 44.48643 | 8.73788 | 10485 ft | 314 kts | 2° |
| 2026-05-08 05:32 | 44.50780 | 8.73880 | 10299 ft | 303 kts | 2° |
| 2026-05-08 05:32 | 44.52861 | 8.73969 | 10113 ft | 293 kts | 3° |
| 2026-05-08 05:32 | 44.54879 | 8.74056 | 9863 ft | 286 kts | 3° |
| 2026-05-08 05:33 | 44.56855 | 8.74141 | 9502 ft | 284 kts | 3° |
| 2026-05-08 05:33 | 44.58808 | 8.74227 | 9126 ft | 283 kts | 3° |
| 2026-05-08 05:33 | 44.60764 | 8.74312 | 8756 ft | 281 kts | 3° |
| 2026-05-08 05:33 | 44.62711 | 8.74397 | 8391 ft | 279 kts | 3° |
| 2026-05-08 05:34 | 44.64668 | 8.74482 | 8032 ft | 278 kts | 3° |
| 2026-05-08 05:34 | 44.66583 | 8.74564 | 7681 ft | 276 kts | 3° |
| 2026-05-08 05:34 | 44.68472 | 8.74679 | 7325 ft | 274 kts | 7° |
| 2026-05-08 05:34 | 44.70356 | 8.75060 | 6962 ft | 271 kts | 14° |
| 2026-05-08 05:35 | 44.72168 | 8.75712 | 6606 ft | 268 kts | 18° |
| 2026-05-08 05:35 | 44.73949 | 8.76436 | 6259 ft | 266 kts | 18° |
| 2026-05-08 05:35 | 44.75719 | 8.77167 | 5901 ft | 265 kts | 19° |
| 2026-05-08 05:35 | 44.77499 | 8.77904 | 5538 ft | 263 kts | 19° |
| 2026-05-08 05:36 | 44.79249 | 8.78623 | 5187 ft | 262 kts | 19° |
| 2026-05-08 05:36 | 44.80991 | 8.79339 | 4843 ft | 260 kts | 19° |
| 2026-05-08 05:36 | 44.82700 | 8.80039 | 4501 ft | 258 kts | 19° |
| 2026-05-08 05:36 | 44.84425 | 8.80747 | 4145 ft | 257 kts | 19° |
| 2026-05-08 05:37 | 44.86149 | 8.81454 | 3787 ft | 256 kts | 19° |
| 2026-05-08 05:37 | 44.87840 | 8.82149 | 3440 ft | 254 kts | 19° |
| 2026-05-08 05:37 | 44.89543 | 8.82851 | 3094 ft | 253 kts | 19° |
| 2026-05-08 05:37 | 44.91217 | 8.83539 | 2964 ft | 251 kts | 19° |
| 2026-05-08 05:38 | 44.92905 | 8.84233 | 2886 ft | 251 kts | 19° |
| 2026-05-08 05:38 | 44.94593 | 8.84927 | 2937 ft | 252 kts | 20° |
| 2026-05-08 05:38 | 44.96281 | 8.85623 | 2959 ft | 252 kts | 19° |
| 2026-05-08 05:38 | 44.97950 | 8.86312 | 2971 ft | 251 kts | 20° |
| 2026-05-08 05:39 | 44.99600 | 8.86990 | 2970 ft | 239 kts | 19° |
| 2026-05-08 05:39 | 45.01212 | 8.87656 | 2978 ft | 244 kts | 19° |
| 2026-05-08 05:39 | 45.02860 | 8.88338 | 2981 ft | 245 kts | 19° |
| 2026-05-08 05:39 | 45.04542 | 8.88757 | 2974 ft | 250 kts | 2° |
| 2026-05-08 05:40 | 45.06275 | 8.88430 | 2982 ft | 253 kts | 353° |
| 2026-05-08 05:40 | 45.08012 | 8.87948 | 2984 ft | 253 kts | 352° |
| 2026-05-08 05:40 | 45.09743 | 8.87453 | 2986 ft | 253 kts | 352° |
| 2026-05-08 05:40 | 45.11472 | 8.86966 | 2986 ft | 254 kts | 352° |
| 2026-05-08 05:41 | 45.13232 | 8.86478 | 2983 ft | 254 kts | 352° |
| 2026-05-08 05:41 | 45.14961 | 8.86004 | 2979 ft | 254 kts | 352° |
| 2026-05-08 05:41 | 45.16703 | 8.85528 | 2982 ft | 254 kts | 352° |
| 2026-05-08 05:41 | 45.18443 | 8.85053 | 2984 ft | 254 kts | 353° |
| 2026-05-08 05:42 | 45.20177 | 8.84581 | 2981 ft | 254 kts | 352° |
| 2026-05-08 05:42 | 45.21933 | 8.84103 | 2984 ft | 253 kts | 353° |
| 2026-05-08 05:42 | 45.23651 | 8.83635 | 2984 ft | 253 kts | 352° |
| 2026-05-08 05:42 | 45.25374 | 8.83168 | 2984 ft | 253 kts | 352° |
| 2026-05-08 05:43 | 45.27123 | 8.82692 | 2988 ft | 253 kts | 352° |
| 2026-05-08 05:43 | 45.28835 | 8.82225 | 2986 ft | 253 kts | 352° |
| 2026-05-08 05:43 | 45.30580 | 8.81749 | 2986 ft | 253 kts | 352° |
| 2026-05-08 05:43 | 45.32320 | 8.81273 | 2992 ft | 253 kts | 352° |
| 2026-05-08 05:44 | 45.34042 | 8.80802 | 2999 ft | 253 kts | 352° |
| 2026-05-08 05:44 | 45.35787 | 8.80324 | 2994 ft | 253 kts | 352° |
| 2026-05-08 05:44 | 45.37498 | 8.79890 | 2992 ft | 252 kts | 354° |
| 2026-05-08 05:44 | 45.39257 | 8.79553 | 2991 ft | 252 kts | 356° |
| 2026-05-08 05:45 | 45.41000 | 8.79282 | 2990 ft | 252 kts | 355° |
| 2026-05-08 05:45 | 45.42724 | 8.78929 | 2989 ft | 252 kts | 353° |
| 2026-05-08 05:45 | 45.44457 | 8.78495 | 2989 ft | 252 kts | 352° |
| 2026-05-08 05:45 | 45.46190 | 8.78019 | 2990 ft | 252 kts | 351° |
| 2026-05-08 05:46 | 45.47912 | 8.77536 | 2991 ft | 252 kts | 351° |
| 2026-05-08 05:46 | 45.49615 | 8.77059 | 2965 ft | 252 kts | 351° |
| 2026-05-08 05:46 | 45.51310 | 8.76587 | 2754 ft | 240 kts | 351° |
| 2026-05-08 05:46 | 45.52905 | 8.76145 | 2438 ft | 230 kts | 351° |
| 2026-05-08 05:47 | 45.54448 | 8.75718 | 2132 ft | 220 kts | 351° |
| 2026-05-08 05:47 | 45.55920 | 8.75311 | 1840 ft | 208 kts | 351° |
| 2026-05-08 05:47 | 45.57268 | 8.74938 | 1586 ft | 188 kts | 350° |
| 2026-05-08 05:47 | 45.58491 | 8.74601 | 1406 ft | 172 kts | 351° |
| 2026-05-08 05:48 | 45.59626 | 8.74287 | 1140 ft | 159 kts | 350° |
| 2026-05-08 05:48 | 45.60662 | 8.74001 | 903 ft | 145 kts | 350° |
| 2026-05-08 05:48 | 45.61608 | 8.73740 | 730 ft | 131 kts | 350° |
| 2026-05-08 05:48 | 45.62420 | 8.73520 | 713 ft | 99 kts | 348° |
| 2026-05-08 05:49 | 45.62930 | 8.73374 | 723 ft | 52 kts | 348° |
| 2026-05-08 05:49 | 45.63209 | 8.73166 | 731 ft | 36 kts | 310° |
| 2026-05-08 05:49 | 45.63343 | 8.72897 | 736 ft | 30 kts | 304° |
| 2026-05-08 05:49 | 45.63403 | 8.72652 | 741 ft | 24 kts | 264° |
| 2026-05-08 05:50 | 45.63382 | 8.72421 | 743 ft | 22 kts | 259° |
| 2026-05-08 05:50 | 45.63353 | 8.72211 | 746 ft | 20 kts | 259° |
| 2026-05-08 05:50 | 45.63327 | 8.72019 | 750 ft | 19 kts | 260° |
| 2026-05-08 05:50 | 45.63302 | 8.71829 | 750 ft | 19 kts | 259° |
| 2026-05-08 05:51 | 45.63267 | 8.71671 | 749 ft | 14 kts | 210° |
| 2026-05-08 05:51 | 45.63161 | 8.71691 | 747 ft | 16 kts | 168° |
| 2026-05-08 05:51 | 45.63041 | 8.71724 | 744 ft | 18 kts | 169° |
| 2026-05-08 05:51 | 45.62955 | 8.71674 | 744 ft | 14 kts | 260° |
| 2026-05-08 05:52 | 45.62928 | 8.71567 | 744 ft | 8 kts | 190° |
| 2026-05-08 05:52 | 45.62872 | 8.71584 | 745 ft | 4 kts | 169° |
| 2026-05-08 05:52 | 45.62864 | 8.71586 | 745 ft | 0 kts | 170° |